createdAt,value
2017-06-09T00:00:48.505Z,46.19
2017-06-09T00:01:50.391Z,46.58
2017-06-09T00:02:52.274Z,46.77
2017-06-09T00:03:54.159Z,46.48
2017-06-09T00:04:55.954Z,46.67
2017-06-09T00:05:57.755Z,46.58
2017-06-09T00:06:59.618Z,46.28
2017-06-09T00:08:01.498Z,45.92
2017-06-09T00:09:03.351Z,46.09
2017-06-09T00:10:17.487Z,46.67
2017-06-09T00:11:19.371Z,46.19
2017-06-09T00:12:21.255Z,46.41
2017-06-09T00:13:23.137Z,46.21
2017-06-09T00:14:24.961Z,46.58
2017-06-09T00:15:26.755Z,46.69
2017-06-09T00:16:28.618Z,46.59
2017-06-09T00:17:30.480Z,46.59
2017-06-09T00:18:32.339Z,46.86
2017-06-09T00:19:46.498Z,47.08
2017-06-09T00:20:48.362Z,46.69
2017-06-09T00:21:50.222Z,46.12
2017-06-09T00:22:52.077Z,45.90
2017-06-09T00:23:53.882Z,45.73
2017-06-09T00:24:55.679Z,45.54
2017-06-09T00:25:57.544Z,46.02
2017-06-09T00:26:59.365Z,46.02
2017-06-09T00:28:01.186Z,45.83
2017-06-09T00:29:15.312Z,46.21
2017-06-09T00:30:17.175Z,46.50
2017-06-09T00:31:19.034Z,46.59
2017-06-09T00:32:20.894Z,46.31
2017-06-09T00:33:22.721Z,46.38
2017-06-09T00:34:24.541Z,46.41
2017-06-09T00:35:26.402Z,46.09
2017-06-09T00:36:28.263Z,46.48
2017-06-09T00:37:30.120Z,46.86
2017-06-09T00:38:44.256Z,46.86
2017-06-09T00:39:46.137Z,46.67
2017-06-09T00:40:47.995Z,46.77
2017-06-09T00:41:49.853Z,46.77
2017-06-09T00:42:51.653Z,46.77
2017-06-09T00:43:53.453Z,46.77
2017-06-09T00:44:55.319Z,46.96
2017-06-09T00:45:57.179Z,47.53
2017-06-09T00:46:59.045Z,46.86
2017-06-09T00:48:13.179Z,47.82
2017-06-09T00:49:15.058Z,47.53
2017-06-09T00:50:16.917Z,47.44
2017-06-09T00:51:18.778Z,47.63
2017-06-09T00:52:20.603Z,47.53
2017-06-09T00:53:22.425Z,47.53
2017-06-09T00:54:24.308Z,47.53
2017-06-09T00:55:26.168Z,47.53
2017-06-09T00:56:28.031Z,47.63
2017-06-09T00:57:42.183Z,47.82
2017-06-09T00:58:44.047Z,48.09
2017-06-09T00:59:45.904Z,48.38
2017-06-09T01:00:47.766Z,48.18
2017-06-09T01:01:49.572Z,48.18
2017-06-09T01:02:51.395Z,48.28
2017-06-09T01:03:53.254Z,48.47
2017-06-09T01:04:55.113Z,48.85
2017-06-09T01:05:56.976Z,48.85
2017-06-09T01:07:11.134Z,49.05
2017-06-09T01:08:13.032Z,48.95
2017-06-09T01:09:14.888Z,48.76
2017-06-09T01:10:16.774Z,48.47
2017-06-09T01:11:18.575Z,47.89
2017-06-09T01:12:20.401Z,48.38
2017-06-09T01:13:22.284Z,48.38
2017-06-09T01:14:24.161Z,48.18
2017-06-09T01:15:26.023Z,48.47
2017-06-09T01:16:40.172Z,48.40
2017-06-09T01:17:42.035Z,48.40
2017-06-09T01:18:43.896Z,48.28
2017-06-09T01:19:45.779Z,48.59
2017-06-09T01:20:47.604Z,48.21
2017-06-09T01:21:49.421Z,48.21
2017-06-09T01:22:51.285Z,48.21
2017-06-09T01:23:53.147Z,48.30
2017-06-09T01:24:55.012Z,48.40
2017-06-09T01:26:09.155Z,48.59
2017-06-09T01:27:11.038Z,48.30
2017-06-09T01:28:12.901Z,48.30
2017-06-09T01:29:14.786Z,48.21
2017-06-09T01:30:16.587Z,48.02
2017-06-09T01:31:18.392Z,47.63
2017-06-09T01:32:20.257Z,47.72
2017-06-09T01:33:22.119Z,48.11
2017-06-09T01:34:23.985Z,48.30
2017-06-09T01:35:38.142Z,48.49
2017-06-09T01:36:40.002Z,48.28
2017-06-09T01:37:41.869Z,47.99
2017-06-09T01:38:43.753Z,48.49
2017-06-09T01:39:45.577Z,48.49
2017-06-09T01:40:47.383Z,48.30
2017-06-09T01:41:49.265Z,48.30
2017-06-09T01:42:51.129Z,48.30
2017-06-09T01:43:53.010Z,48.40
2017-06-09T01:45:07.148Z,48.59
2017-06-09T01:46:09.011Z,48.21
2017-06-09T01:47:10.877Z,48.11
2017-06-09T01:48:12.739Z,48.30
2017-06-09T01:49:14.538Z,48.18
2017-06-09T01:50:16.341Z,48.28
2017-06-09T01:51:18.209Z,48.28
2017-06-09T01:52:20.071Z,48.38
2017-06-09T01:53:21.955Z,48.38
2017-06-09T01:54:36.100Z,48.28
2017-06-09T01:55:37.920Z,48.47
2017-06-09T01:56:39.745Z,48.38
2017-06-09T01:57:41.564Z,48.18
2017-06-09T01:58:43.430Z,48.38
2017-06-09T01:59:45.295Z,48.76
2017-06-09T02:00:47.151Z,48.76
2017-06-09T02:01:48.961Z,48.76
2017-06-09T02:02:50.780Z,48.57
2017-06-09T02:04:05.034Z,48.38
2017-06-09T02:05:06.912Z,48.57
2017-06-09T02:06:08.772Z,48.66
2017-06-09T02:07:10.643Z,48.38
2017-06-09T02:08:12.460Z,48.28
2017-06-09T02:09:14.265Z,48.18
2017-06-09T02:10:16.111Z,48.47
2017-06-09T02:11:17.940Z,48.66
2017-06-09T02:12:19.765Z,48.57
2017-06-09T02:13:33.985Z,48.66
2017-06-09T02:14:35.850Z,48.95
2017-06-09T02:15:37.714Z,49.24
2017-06-09T02:16:39.602Z,49.41
2017-06-09T02:17:41.430Z,49.69
2017-06-09T02:18:43.254Z,49.88
2017-06-09T02:19:45.135Z,50.08
2017-06-09T02:20:47.001Z,49.98
2017-06-09T02:21:48.863Z,50.46
2017-06-09T02:23:03.007Z,50.46
2017-06-09T02:24:04.890Z,50.46
2017-06-09T02:25:06.748Z,50.37
2017-06-09T02:26:08.611Z,50.84
2017-06-09T02:27:10.416Z,51.14
2017-06-09T02:28:12.243Z,50.75
2017-06-09T02:29:14.112Z,51.42
2017-06-09T02:30:15.996Z,51.32
2017-06-09T02:31:17.880Z,51.61
2017-06-09T02:32:32.020Z,51.10
2017-06-09T02:33:33.901Z,51.42
2017-06-09T02:34:35.774Z,51.32
2017-06-09T02:35:37.634Z,51.40
2017-06-09T02:36:39.443Z,51.51
2017-06-09T02:37:41.269Z,51.97
2017-06-09T02:38:43.133Z,52.07
2017-06-09T02:39:45.020Z,51.97
2017-06-09T02:40:46.905Z,52.45
2017-06-09T02:42:01.041Z,52.26
2017-06-09T02:43:02.955Z,52.16
2017-06-09T02:44:04.833Z,52.36
2017-06-09T02:45:06.696Z,52.45
2017-06-09T02:46:08.510Z,52.26
2017-06-09T02:47:10.338Z,52.45
2017-06-09T02:48:12.228Z,52.45
2017-06-09T02:49:14.092Z,51.87
2017-06-09T02:50:15.956Z,51.87
2017-06-09T02:51:30.101Z,51.97
2017-06-09T02:52:31.970Z,51.87
2017-06-09T02:53:33.827Z,51.97
2017-06-09T02:54:35.699Z,52.16
2017-06-09T02:55:37.529Z,51.78
2017-06-09T02:56:39.352Z,51.87
2017-06-09T02:57:41.215Z,51.59
2017-06-09T02:58:43.085Z,51.59
2017-06-09T02:59:44.971Z,51.30
2017-06-09T03:00:59.110Z,52.09
2017-06-09T03:02:00.978Z,51.51
2017-06-09T03:03:02.869Z,51.32
2017-06-09T03:04:04.734Z,51.32
2017-06-09T03:05:06.562Z,51.14
2017-06-09T03:06:08.364Z,50.75
2017-06-09T03:07:10.230Z,50.46
2017-06-09T03:08:12.091Z,50.01
2017-06-09T03:09:13.964Z,50.10
2017-06-09T03:10:28.112Z,48.85
2017-06-09T03:11:29.995Z,48.49
2017-06-09T03:12:31.860Z,48.30
2017-06-09T03:13:33.730Z,47.75
2017-06-09T03:14:35.557Z,47.66
2017-06-09T03:15:37.364Z,47.30
2017-06-09T03:16:39.233Z,47.00
2017-06-09T03:17:41.101Z,46.43
2017-06-09T03:18:42.966Z,45.49
2017-06-09T03:19:57.109Z,45.10
2017-06-09T03:20:58.978Z,44.93
2017-06-09T03:22:00.845Z,43.88
2017-06-09T03:23:02.744Z,43.41
2017-06-09T03:24:04.561Z,42.74
2017-06-09T03:25:06.369Z,42.28
2017-06-09T03:26:08.242Z,42.38
2017-06-09T03:27:10.261Z,41.05
2017-06-09T03:28:12.136Z,40.86
2017-06-09T03:29:26.300Z,40.66
2017-06-09T03:30:28.169Z,40.01
2017-06-09T03:31:30.043Z,39.53
2017-06-09T03:32:31.931Z,39.14
2017-06-09T03:33:33.761Z,38.78
2017-06-09T03:34:35.571Z,38.49
2017-06-09T03:35:37.467Z,38.02
2017-06-09T03:36:39.361Z,37.73
2017-06-09T03:37:41.252Z,37.25
2017-06-09T03:38:55.392Z,36.59
2017-06-09T03:39:57.262Z,36.42
2017-06-09T03:40:59.136Z,36.32
2017-06-09T03:42:01.026Z,35.64
2017-06-09T03:43:02.837Z,35.57
2017-06-09T03:44:04.670Z,35.00
2017-06-09T03:45:06.540Z,34.52
2017-06-09T03:46:08.413Z,34.25
2017-06-09T03:47:10.305Z,33.57
2017-06-09T03:48:24.608Z,32.91
2017-06-09T03:49:26.499Z,32.71
2017-06-09T03:50:28.393Z,32.14
2017-06-09T03:51:30.263Z,31.86
2017-06-09T03:52:32.075Z,31.28
2017-06-09T03:53:33.894Z,30.60
2017-06-09T03:54:35.787Z,30.42
2017-06-09T03:55:37.658Z,29.95
2017-06-09T03:56:39.532Z,29.95
2017-06-09T03:57:53.685Z,29.28
2017-06-09T03:58:55.615Z,28.72
2017-06-09T03:59:57.464Z,28.33
2017-06-09T04:00:59.335Z,27.67
2017-06-09T04:02:01.153Z,27.58
2017-06-09T04:03:02.990Z,26.71
2017-06-09T04:04:04.870Z,26.62
2017-06-09T04:05:06.764Z,26.43
2017-06-09T04:06:08.635Z,25.57
2017-06-09T04:07:22.784Z,25.47
2017-06-09T04:08:24.659Z,25.19
2017-06-09T04:09:26.530Z,24.61
2017-06-09T04:10:28.408Z,24.71
2017-06-09T04:11:30.246Z,24.43
2017-06-09T04:12:32.073Z,24.04
2017-06-09T04:13:33.949Z,23.95
2017-06-09T04:14:35.824Z,23.36
2017-06-09T04:15:37.704Z,23.47
2017-06-09T04:16:51.876Z,22.89
2017-06-09T04:17:53.772Z,22.99
2017-06-09T04:18:55.648Z,22.80
2017-06-09T04:19:57.545Z,22.71
2017-06-09T04:20:59.365Z,22.02
2017-06-09T04:22:01.200Z,22.02
2017-06-09T04:23:03.081Z,21.73
2017-06-09T04:24:04.959Z,21.64
2017-06-09T04:25:06.862Z,21.84
2017-06-09T04:26:21.042Z,22.13
2017-06-09T04:27:22.934Z,22.03
2017-06-09T04:28:24.812Z,22.05
2017-06-09T04:29:26.680Z,22.14
2017-06-09T04:30:28.497Z,22.44
2017-06-09T04:31:30.309Z,22.33
2017-06-09T04:32:32.195Z,23.00
2017-06-09T04:33:34.069Z,23.08
2017-06-09T04:34:35.945Z,23.38
2017-06-09T04:35:50.097Z,23.38
2017-06-09T04:36:51.975Z,23.47
2017-06-09T04:37:53.850Z,23.66
2017-06-09T04:38:55.731Z,24.24
2017-06-09T04:39:57.569Z,24.52
2017-06-09T04:40:59.388Z,24.52
2017-06-09T04:42:01.269Z,24.80
2017-06-09T04:43:03.148Z,24.71
2017-06-09T04:44:05.053Z,25.09
2017-06-09T04:45:19.226Z,24.72
2017-06-09T04:46:21.118Z,24.52
2017-06-09T04:47:22.996Z,24.23
2017-06-09T04:48:24.887Z,23.75
2017-06-09T04:49:26.720Z,23.38
2017-06-09T04:50:28.561Z,23.10
2017-06-09T04:51:30.442Z,22.71
2017-06-09T04:52:32.340Z,22.42
2017-06-09T04:53:34.217Z,21.75
2017-06-09T04:54:48.376Z,21.57
2017-06-09T04:55:50.250Z,21.48
2017-06-09T04:56:52.153Z,21.48
2017-06-09T04:57:54.053Z,21.00
2017-06-09T04:58:55.892Z,20.81
2017-06-09T04:59:57.709Z,20.61
2017-06-09T05:00:59.588Z,20.43
2017-06-09T05:02:01.463Z,20.14
2017-06-09T05:03:03.343Z,20.23
2017-06-09T05:04:17.499Z,20.04
2017-06-09T05:05:19.378Z,20.04
2017-06-09T05:06:21.277Z,20.23
2017-06-09T05:07:23.161Z,20.14
2017-06-09T05:08:24.997Z,20.42
2017-06-09T05:09:26.817Z,20.71
2017-06-09T05:10:28.694Z,20.71
2017-06-09T05:11:30.570Z,20.81
2017-06-09T05:12:32.472Z,20.51
2017-06-09T05:13:46.646Z,20.70
2017-06-09T05:14:48.551Z,20.71
2017-06-09T05:15:50.440Z,20.51
2017-06-09T05:16:52.335Z,20.42
2017-06-09T05:17:54.154Z,20.32
2017-06-09T05:18:55.975Z,20.12
2017-06-09T05:19:57.870Z,20.41
2017-06-09T05:20:59.748Z,20.80
2017-06-09T05:22:01.629Z,20.90
2017-06-09T05:23:15.802Z,21.37
2017-06-09T05:24:17.674Z,21.47
2017-06-09T05:25:19.565Z,21.56
2017-06-09T05:26:21.450Z,21.36
2017-06-09T05:27:23.257Z,21.74
2017-06-09T05:28:25.068Z,22.31
2017-06-09T05:29:26.946Z,22.71
2017-06-09T05:30:28.821Z,23.10
2017-06-09T05:31:30.694Z,23.29
2017-06-09T05:32:44.849Z,23.47
2017-06-09T05:33:46.741Z,23.85
2017-06-09T05:34:48.619Z,24.13
2017-06-09T05:35:50.490Z,24.71
2017-06-09T05:36:52.302Z,25.47
2017-06-09T05:37:54.115Z,26.04
2017-06-09T05:38:55.992Z,27.21
2017-06-09T05:39:57.860Z,27.00
2017-06-09T05:40:59.737Z,27.67
2017-06-09T05:42:13.902Z,27.84
2017-06-09T05:43:15.774Z,28.12
2017-06-09T05:44:17.646Z,28.79
2017-06-09T05:45:19.516Z,29.08
2017-06-09T05:46:21.328Z,29.47
2017-06-09T05:47:23.139Z,29.37
2017-06-09T05:48:25.013Z,29.57
2017-06-09T05:49:27.030Z,29.76
2017-06-09T05:50:28.907Z,30.05
2017-06-09T05:51:43.073Z,30.23
2017-06-09T05:52:44.942Z,30.71
2017-06-09T05:53:46.816Z,30.99
2017-06-09T05:54:48.706Z,31.09
2017-06-09T05:55:50.520Z,31.36
2017-06-09T05:56:52.335Z,31.46
2017-06-09T05:57:54.230Z,31.94
2017-06-09T05:58:56.124Z,32.42
2017-06-09T05:59:57.990Z,32.89
2017-06-09T06:01:12.143Z,32.99
2017-06-09T06:02:14.029Z,33.36
2017-06-09T06:03:15.905Z,33.55
2017-06-09T06:04:17.798Z,33.65
2017-06-09T06:05:19.635Z,33.75
2017-06-09T06:06:21.444Z,33.84
2017-06-09T06:07:23.318Z,33.94
2017-06-09T06:08:25.208Z,33.84
2017-06-09T06:09:27.077Z,33.94
2017-06-09T06:10:41.230Z,33.94
2017-06-09T06:11:43.125Z,33.94
2017-06-09T06:12:45.016Z,34.13
2017-06-09T06:13:46.885Z,34.04
2017-06-09T06:14:48.700Z,34.04
2017-06-09T06:15:50.510Z,34.04
2017-06-09T06:16:52.401Z,34.13
2017-06-09T06:17:54.270Z,34.04
2017-06-09T06:18:56.139Z,34.13
2017-06-09T06:20:10.285Z,33.84
2017-06-09T06:21:12.166Z,34.33
2017-06-09T06:22:14.044Z,34.33
2017-06-09T06:23:15.919Z,34.62
2017-06-09T06:24:17.748Z,34.71
2017-06-09T06:25:19.561Z,34.62
2017-06-09T06:26:21.454Z,34.91
2017-06-09T06:27:23.349Z,34.62
2017-06-09T06:28:25.218Z,34.71
2017-06-09T06:29:39.364Z,34.81
2017-06-09T06:30:41.238Z,35.58
2017-06-09T06:31:43.108Z,35.39
2017-06-09T06:32:45.027Z,35.58
2017-06-09T06:33:46.825Z,35.39
2017-06-09T06:34:48.634Z,35.00
2017-06-09T06:35:50.506Z,34.91
2017-06-09T06:36:52.380Z,35.00
2017-06-09T06:37:54.270Z,35.10
2017-06-09T06:39:08.419Z,35.10
2017-06-09T06:40:10.296Z,35.10
2017-06-09T06:41:12.183Z,34.71
2017-06-09T06:42:14.055Z,34.62
2017-06-09T06:43:15.887Z,34.54
2017-06-09T06:44:17.720Z,34.71
2017-06-09T06:45:19.593Z,34.83
2017-06-09T06:46:21.486Z,34.73
2017-06-09T06:47:23.377Z,34.63
2017-06-09T06:48:37.544Z,34.34
2017-06-09T06:49:39.420Z,34.25
2017-06-09T06:50:41.309Z,34.34
2017-06-09T06:51:43.202Z,34.54
2017-06-09T06:52:45.017Z,34.63
2017-06-09T06:53:46.853Z,34.25
2017-06-09T06:54:48.746Z,34.15
2017-06-09T06:55:50.639Z,34.15
2017-06-09T06:56:52.535Z,34.05
2017-06-09T06:58:06.680Z,34.15
2017-06-09T06:59:08.550Z,33.78
2017-06-09T07:00:10.423Z,33.97
2017-06-09T07:01:12.308Z,34.27
2017-06-09T07:02:14.124Z,34.07
2017-06-09T07:03:15.939Z,34.17
2017-06-09T07:04:17.832Z,34.17
2017-06-09T07:05:19.724Z,34.07
2017-06-09T07:06:21.618Z,33.87
2017-06-09T07:07:35.763Z,33.69
2017-06-09T07:08:37.636Z,33.41
2017-06-09T07:09:39.507Z,33.31
2017-06-09T07:10:41.401Z,33.51
2017-06-09T07:11:43.235Z,33.80
2017-06-09T07:12:45.069Z,33.80
2017-06-09T07:13:46.937Z,33.70
2017-06-09T07:14:48.813Z,33.31
2017-06-09T07:15:50.684Z,33.41
2017-06-09T07:17:04.832Z,33.22
2017-06-09T07:18:06.699Z,33.12
2017-06-09T07:19:08.566Z,33.31
2017-06-09T07:20:10.438Z,33.31
2017-06-09T07:21:12.252Z,33.12
2017-06-09T07:22:14.088Z,33.14
2017-06-09T07:23:15.957Z,32.75
2017-06-09T07:24:17.825Z,32.56
2017-06-09T07:25:19.701Z,32.65
2017-06-09T07:26:33.849Z,32.46
2017-06-09T07:27:35.727Z,32.56
2017-06-09T07:28:37.615Z,32.46
2017-06-09T07:29:39.506Z,31.97
2017-06-09T07:30:41.318Z,32.17
2017-06-09T07:31:43.155Z,32.26
2017-06-09T07:32:45.025Z,32.07
2017-06-09T07:33:46.895Z,32.07
2017-06-09T07:34:48.765Z,32.26
2017-06-09T07:36:02.910Z,32.17
2017-06-09T07:37:04.783Z,31.78
2017-06-09T07:38:06.655Z,32.07
2017-06-09T07:39:08.543Z,32.26
2017-06-09T07:40:10.357Z,32.26
2017-06-09T07:41:12.177Z,32.36
2017-06-09T07:42:14.045Z,32.26
2017-06-09T07:43:15.941Z,32.17
2017-06-09T07:44:17.834Z,32.17
2017-06-09T07:45:32.009Z,32.56
2017-06-09T07:46:33.889Z,32.82
2017-06-09T07:47:35.762Z,32.92
2017-06-09T07:48:37.649Z,32.94
2017-06-09T07:49:39.468Z,33.22
2017-06-09T07:50:41.300Z,33.52
2017-06-09T07:51:43.175Z,34.19
2017-06-09T07:52:45.068Z,34.19
2017-06-09T07:53:46.982Z,34.38
2017-06-09T07:55:01.104Z,34.47
2017-06-09T07:56:02.971Z,34.57
2017-06-09T07:57:04.843Z,34.57
2017-06-09T07:58:06.710Z,34.19
2017-06-09T07:59:08.520Z,34.19
2017-06-09T08:00:10.358Z,34.19
2017-06-09T08:01:12.228Z,34.19
2017-06-09T08:02:14.103Z,33.99
2017-06-09T08:03:15.976Z,33.89
2017-06-09T08:04:30.117Z,33.80
2017-06-09T08:05:32.001Z,34.19
2017-06-09T08:06:33.882Z,34.20
2017-06-09T08:07:35.755Z,34.19
2017-06-09T08:08:37.575Z,33.91
2017-06-09T08:09:39.400Z,33.41
2017-06-09T08:10:41.273Z,33.51
2017-06-09T08:11:43.142Z,33.80
2017-06-09T08:12:45.019Z,33.89
2017-06-09T08:13:59.189Z,33.51
2017-06-09T08:15:01.063Z,33.31
2017-06-09T08:16:02.951Z,33.22
2017-06-09T08:17:04.820Z,33.04
2017-06-09T08:18:06.634Z,32.34
2017-06-09T08:19:08.445Z,31.76
2017-06-09T08:20:10.316Z,31.47
2017-06-09T08:21:12.190Z,31.57
2017-06-09T08:22:14.082Z,32.06
2017-06-09T08:23:28.231Z,32.07
2017-06-09T08:24:30.106Z,31.78
2017-06-09T08:25:32.002Z,31.59
2017-06-09T08:26:33.891Z,31.59
2017-06-09T08:27:35.701Z,32.07
2017-06-09T08:28:37.516Z,31.39
2017-06-09T08:29:39.393Z,30.71
2017-06-09T08:30:41.284Z,30.52
2017-06-09T08:31:43.152Z,29.16
2017-06-09T08:32:57.302Z,28.28
2017-06-09T08:33:59.196Z,28.28
2017-06-09T08:35:01.085Z,28.38
2017-06-09T08:36:02.958Z,28.28
2017-06-09T08:37:04.798Z,28.56
2017-06-09T08:38:06.627Z,28.76
2017-06-09T08:39:08.518Z,28.86
2017-06-09T08:40:10.388Z,28.66
2017-06-09T08:41:12.262Z,28.56
2017-06-09T08:42:26.438Z,28.56
2017-06-09T08:43:28.327Z,28.38
2017-06-09T08:44:30.197Z,28.28
2017-06-09T08:45:32.064Z,28.66
2017-06-09T08:46:33.882Z,28.28
2017-06-09T08:47:35.695Z,28.28
2017-06-09T08:48:37.564Z,28.66
2017-06-09T08:49:39.434Z,29.15
2017-06-09T08:50:41.308Z,29.24
2017-06-09T08:51:55.452Z,29.15
2017-06-09T08:52:57.345Z,29.24
2017-06-09T08:53:59.214Z,29.24
2017-06-09T08:55:01.107Z,29.44
2017-06-09T08:56:02.947Z,29.44
2017-06-09T08:57:04.775Z,29.34
2017-06-09T08:58:06.679Z,28.94
2017-06-09T08:59:08.527Z,28.66
2017-06-09T09:00:10.400Z,28.76
2017-06-09T09:01:24.573Z,28.38
2017-06-09T09:02:26.438Z,28.47
2017-06-09T09:03:28.309Z,28.86
2017-06-09T09:04:30.184Z,28.87
2017-06-09T09:05:31.990Z,28.29
2017-06-09T09:06:33.810Z,28.49
2017-06-09T09:07:35.683Z,28.49
2017-06-09T09:08:37.572Z,28.49
2017-06-09T09:09:39.444Z,28.50
2017-06-09T09:10:53.597Z,28.11
2017-06-09T09:11:55.488Z,28.30
2017-06-09T09:12:57.384Z,28.30
2017-06-09T09:13:59.273Z,27.53
2017-06-09T09:15:01.081Z,27.82
2017-06-09T09:16:02.892Z,27.92
2017-06-09T09:17:04.767Z,28.02
2017-06-09T09:18:06.641Z,27.72
2017-06-09T09:19:08.531Z,27.43
2017-06-09T09:20:22.680Z,27.24
2017-06-09T09:21:24.546Z,27.82
2017-06-09T09:22:26.417Z,28.02
2017-06-09T09:23:28.291Z,27.92
2017-06-09T09:24:30.124Z,28.02
2017-06-09T09:25:31.938Z,28.20
2017-06-09T09:26:33.809Z,28.40
2017-06-09T09:27:35.685Z,28.02
2017-06-09T09:28:37.553Z,28.02
2017-06-09T09:29:51.705Z,27.92
2017-06-09T09:30:53.593Z,28.02
2017-06-09T09:31:55.467Z,27.92
2017-06-09T09:32:57.342Z,27.62
2017-06-09T09:33:59.178Z,27.62
2017-06-09T09:35:00.992Z,27.33
2017-06-09T09:36:02.866Z,27.33
2017-06-09T09:37:04.758Z,27.62
2017-06-09T09:38:06.650Z,27.14
2017-06-09T09:39:20.803Z,27.45
2017-06-09T09:40:22.676Z,27.06
2017-06-09T09:41:24.542Z,26.86
2017-06-09T09:42:26.418Z,26.96
2017-06-09T09:43:28.254Z,27.06
2017-06-09T09:44:30.082Z,27.17
2017-06-09T09:45:31.957Z,27.26
2017-06-09T09:46:33.862Z,27.26
2017-06-09T09:47:35.749Z,27.66
2017-06-09T09:48:49.900Z,27.28
2017-06-09T09:49:51.792Z,27.67
2017-06-09T09:50:53.666Z,27.47
2017-06-09T09:51:55.537Z,27.67
2017-06-09T09:52:57.366Z,27.37
2017-06-09T09:53:59.181Z,27.28
2017-06-09T09:55:01.079Z,27.17
2017-06-09T09:56:02.976Z,26.78
2017-06-09T09:57:04.870Z,26.49
2017-06-09T09:58:19.016Z,26.68
2017-06-09T09:59:20.897Z,26.87
2017-06-09T10:00:22.787Z,27.46
2017-06-09T10:01:24.678Z,27.36
2017-06-09T10:02:26.514Z,27.67
2017-06-09T10:03:28.345Z,27.86
2017-06-09T10:04:30.221Z,27.47
2017-06-09T10:05:32.117Z,27.47
2017-06-09T10:06:34.014Z,27.37
2017-06-09T10:07:48.186Z,26.98
2017-06-09T10:08:50.082Z,26.79
2017-06-09T10:09:51.973Z,26.79
2017-06-09T10:10:53.845Z,26.98
2017-06-09T10:11:55.663Z,27.08
2017-06-09T10:12:57.495Z,26.98
2017-06-09T10:13:59.370Z,26.87
2017-06-09T10:15:01.267Z,27.17
2017-06-09T10:16:03.157Z,27.36
2017-06-09T10:17:17.308Z,27.84
2017-06-09T10:18:19.198Z,28.14
2017-06-09T10:19:21.073Z,28.53
2017-06-09T10:20:22.972Z,28.23
2017-06-09T10:21:24.805Z,28.34
2017-06-09T10:22:26.784Z,28.33
2017-06-09T10:23:28.661Z,27.94
2017-06-09T10:24:30.532Z,27.94
2017-06-09T10:25:32.403Z,27.84
2017-06-09T10:26:46.553Z,27.94
2017-06-09T10:27:48.424Z,27.94
2017-06-09T10:28:50.294Z,28.04
2017-06-09T10:29:52.167Z,27.75
2017-06-09T10:30:54.003Z,27.84
2017-06-09T10:31:55.834Z,27.66
2017-06-09T10:32:57.715Z,27.46
2017-06-09T10:33:59.606Z,27.36
2017-06-09T10:35:01.479Z,27.46
2017-06-09T10:36:15.647Z,27.56
2017-06-09T10:37:17.521Z,27.56
2017-06-09T10:38:19.394Z,28.04
2017-06-09T10:39:21.288Z,27.84
2017-06-09T10:40:23.121Z,28.33
2017-06-09T10:41:24.941Z,28.53
2017-06-09T10:42:26.830Z,28.53
2017-06-09T10:43:28.704Z,28.33
2017-06-09T10:44:30.573Z,28.91
2017-06-09T10:45:44.768Z,28.91
2017-06-09T10:46:46.644Z,28.63
2017-06-09T10:47:48.537Z,29.11
2017-06-09T10:48:50.407Z,29.21
2017-06-09T10:49:52.227Z,28.81
2017-06-09T10:50:54.065Z,28.72
2017-06-09T10:51:55.955Z,28.72
2017-06-09T10:52:57.848Z,28.91
2017-06-09T10:53:59.725Z,29.11
2017-06-09T10:55:13.870Z,29.11
2017-06-09T10:56:15.744Z,29.40
2017-06-09T10:57:17.635Z,29.61
2017-06-09T10:58:19.528Z,29.50
2017-06-09T10:59:21.335Z,29.30
2017-06-09T11:00:23.146Z,29.50
2017-06-09T11:01:25.020Z,29.71
2017-06-09T11:02:26.917Z,29.80
2017-06-09T11:03:28.815Z,29.80
2017-06-09T11:04:42.981Z,30.00
2017-06-09T11:05:44.856Z,30.09
2017-06-09T11:07:16.398Z,29.69
2017-06-09T11:08:18.287Z,29.40
2017-06-09T11:09:20.100Z,29.32
2017-06-09T11:10:21.912Z,29.30
2017-06-09T11:11:23.786Z,29.22
2017-06-09T11:12:25.679Z,29.60
2017-06-09T11:13:27.565Z,30.00
2017-06-09T11:14:41.756Z,30.19
2017-06-09T11:15:43.627Z,30.29
2017-06-09T11:16:45.513Z,30.19
2017-06-09T11:17:47.385Z,30.00
2017-06-09T11:18:49.197Z,30.09
2017-06-09T11:19:51.024Z,30.09
2017-06-09T11:20:52.888Z,30.09
2017-06-09T11:21:54.764Z,30.29
2017-06-09T11:22:56.633Z,30.87
2017-06-09T11:24:10.796Z,30.48
2017-06-09T11:25:12.664Z,30.38
2017-06-09T11:26:14.539Z,30.29
2017-06-09T11:27:16.422Z,29.90
2017-06-09T11:28:18.233Z,29.90
2017-06-09T11:29:20.045Z,30.00
2017-06-09T11:30:21.912Z,30.11
2017-06-09T11:31:23.809Z,30.21
2017-06-09T11:32:25.697Z,30.00
2017-06-09T11:33:39.888Z,29.91
2017-06-09T11:34:41.755Z,30.01
2017-06-09T11:35:43.628Z,30.11
2017-06-09T11:36:45.518Z,30.11
2017-06-09T11:37:47.349Z,30.50
2017-06-09T11:38:49.179Z,29.52
2017-06-09T11:39:51.069Z,30.21
2017-06-09T11:40:52.962Z,30.50
2017-06-09T11:41:54.854Z,30.40
2017-06-09T11:43:09.065Z,30.40
2017-06-09T11:44:10.955Z,30.40
2017-06-09T11:45:12.819Z,30.01
2017-06-09T11:46:14.682Z,30.11
2017-06-09T11:47:16.508Z,30.02
2017-06-09T11:48:18.339Z,30.21
2017-06-09T11:49:20.228Z,30.22
2017-06-09T11:50:22.100Z,30.41
2017-06-09T11:51:23.977Z,30.41
2017-06-09T11:52:38.140Z,30.32
2017-06-09T11:53:40.030Z,30.22
2017-06-09T11:54:41.898Z,30.71
2017-06-09T11:55:43.762Z,30.80
2017-06-09T11:56:45.572Z,31.00
2017-06-09T11:57:47.389Z,31.10
2017-06-09T11:58:49.287Z,31.19
2017-06-09T11:59:51.200Z,31.00
2017-06-09T12:00:53.099Z,30.90
2017-06-09T12:02:07.376Z,30.61
2017-06-09T12:03:09.268Z,30.12
2017-06-09T12:04:11.160Z,30.32
2017-06-09T12:05:13.081Z,30.22
2017-06-09T12:06:14.947Z,30.33
2017-06-09T12:07:16.784Z,30.24
2017-06-09T12:08:18.668Z,29.65
2017-06-09T12:09:20.566Z,30.24
2017-06-09T12:10:22.475Z,30.04
2017-06-09T12:11:36.700Z,30.52
2017-06-09T12:12:38.581Z,30.15
2017-06-09T12:13:40.512Z,29.06
2017-06-09T12:14:42.399Z,28.59
2017-06-09T12:15:44.247Z,28.59
2017-06-09T12:16:46.058Z,28.20
2017-06-09T12:17:47.953Z,27.62
2017-06-09T12:18:49.847Z,27.43
2017-06-09T12:19:51.747Z,27.53
2017-06-09T12:21:06.011Z,27.64
2017-06-09T12:22:07.923Z,27.44
2017-06-09T12:23:09.831Z,27.64
2017-06-09T12:24:11.734Z,28.03
2017-06-09T12:25:13.575Z,28.03
2017-06-09T12:26:15.394Z,28.04
2017-06-09T12:27:17.290Z,28.14
2017-06-09T12:28:19.185Z,28.43
2017-06-09T12:29:21.058Z,28.63
2017-06-09T12:30:35.227Z,28.43
2017-06-09T12:31:37.100Z,28.72
2017-06-09T12:32:38.992Z,28.93
2017-06-09T12:33:40.887Z,28.74
2017-06-09T12:34:42.722Z,28.44
2017-06-09T12:35:44.530Z,28.44
2017-06-09T12:36:46.404Z,28.93
2017-06-09T12:37:48.294Z,28.82
2017-06-09T12:38:50.162Z,28.72
2017-06-09T12:40:04.309Z,28.63
2017-06-09T12:41:06.183Z,28.53
2017-06-09T12:42:08.072Z,28.82
2017-06-09T12:43:09.947Z,29.02
2017-06-09T12:44:11.781Z,28.74
2017-06-09T12:45:13.615Z,28.54
2017-06-09T12:46:15.505Z,28.14
2017-06-09T12:47:17.374Z,28.23
2017-06-09T12:48:19.249Z,28.23
2017-06-09T12:49:33.418Z,28.23
2017-06-09T12:50:35.310Z,28.42
2017-06-09T12:51:37.204Z,29.02
2017-06-09T12:52:39.099Z,29.10
2017-06-09T12:53:40.929Z,29.00
2017-06-09T12:54:42.744Z,29.49
2017-06-09T12:55:44.630Z,29.39
2017-06-09T12:56:46.503Z,29.19
2017-06-09T12:57:48.377Z,29.49
2017-06-09T12:59:02.524Z,29.28
2017-06-09T13:00:04.420Z,29.47
2017-06-09T13:01:06.308Z,29.86
2017-06-09T13:02:08.174Z,29.96
2017-06-09T13:03:09.988Z,29.96
2017-06-09T13:04:11.801Z,30.05
2017-06-09T13:05:13.669Z,30.15
2017-06-09T13:06:15.538Z,30.33
2017-06-09T13:07:17.411Z,30.24
2017-06-09T13:08:31.574Z,29.94
2017-06-09T13:09:33.445Z,31.01
2017-06-09T13:10:35.321Z,31.98
2017-06-09T13:11:37.212Z,32.08
2017-06-09T13:12:39.018Z,32.28
2017-06-09T13:13:40.853Z,32.45
2017-06-09T13:14:42.737Z,32.18
2017-06-09T13:15:44.684Z,32.07
2017-06-09T13:16:46.894Z,32.17
2017-06-09T13:18:01.102Z,32.28
2017-06-09T13:19:02.996Z,32.18
2017-06-09T13:20:04.888Z,32.26
2017-06-09T13:21:06.774Z,32.35
2017-06-09T13:22:08.589Z,32.84
2017-06-09T13:23:10.423Z,32.84
2017-06-09T13:24:12.311Z,32.94
2017-06-09T13:25:14.185Z,32.94
2017-06-09T13:26:16.076Z,33.04
2017-06-09T13:27:30.240Z,32.94
2017-06-09T13:28:32.114Z,32.84
2017-06-09T13:29:34.004Z,32.75
2017-06-09T13:30:35.872Z,32.94
2017-06-09T13:31:37.684Z,33.14
2017-06-09T13:32:39.513Z,33.14
2017-06-09T13:33:41.384Z,33.04
2017-06-09T13:34:43.276Z,32.84